Time;durP1;ratioP1;P1;durP2;ratioP2;P2;SDS_P1;SDS_P2;PMS_P1;PMS_P2;Temp;Humidity;BMP_temperature;BMP_pressure;BME280_temperature;BME280_humidity;BME280_pressure;Samples;Min_cycle;Max_cycle;Signal;HPM_P1;HPM_P2
2021/12/11 00:01:39;;;;;;;59.72;24.02;;;;;;;0.35;80.45;99875.22;4148597;28;20069;-87
2021/12/11 00:03:46;;;;;;;46.30;22.15;;;;;;;0.27;79.87;99851.88;4150754;28;20030;-86
2021/12/11 00:05:56;;;;;;;47.13;21.80;;;;;;;0.54;80.22;99871.84;4183687;28;20052;-86
2021/12/11 00:08:00;;;;;;;60.17;21.58;;;;;;;0.40;80.32;99847.34;4183286;28;20056;-86
2021/12/11 00:10:11;;;;;;;77.55;23.65;;;;;;;0.62;79.54;99885.84;4183627;28;20092;-84
2021/12/11 00:12:18;;;;;;;35.78;19.98;;;;;;;0.57;79.69;99879.66;4151254;28;20053;-86
2021/12/11 00:14:25;;;;;;;43.42;20.63;;;;;;;0.61;78.99;99881.53;4183935;28;20056;-87
2021/12/11 00:16:31;;;;;;;34.47;19.98;;;;;;;0.47;79.17;99855.34;4168582;28;20089;-86
2021/12/11 00:20:54;;;;;;;40.80;22.35;;;;;;;0.74;79.17;99895.75;4099971;28;20049;-61
2021/12/11 00:22:58;;;;;;;37.33;21.08;;;;;;;0.73;79.50;99894.03;4100485;28;20049;-59
2021/12/11 00:25:06;;;;;;;44.95;24.52;;;;;;;0.78;79.52;99896.78;4102150;28;20443;-58
2021/12/11 00:27:11;;;;;;;42.33;22.52;;;;;;;0.81;79.39;99891.78;4099662;28;20538;-64
2021/12/11 00:29:20;;;;;;;77.85;25.23;;;;;;;0.86;78.91;99905.66;4113037;28;20050;-60
2021/12/11 00:31:24;;;;;;;47.28;22.80;;;;;;;0.87;78.76;99905.72;4100471;28;20070;-58
2021/12/11 00:33:33;;;;;;;43.47;22.20;;;;;;;0.88;78.85;99911.72;4110280;28;20046;-58
2021/12/11 00:35:37;;;;;;;40.20;20.65;;;;;;;0.90;79.20;99912.66;4099598;28;20058;-59
2021/12/11 00:37:41;;;;;;;40.55;22.05;;;;;;;0.95;79.30;99915.41;4098851;28;20058;-58
2021/12/11 00:39:47;;;;;;;80.53;22.30;;;;;;;0.91;78.75;99919.53;4099202;28;20126;-59
2021/12/11 00:41:54;;;;;;;59.90;22.02;;;;;;;0.84;78.29;99917.50;4112944;28;20051;-58
2021/12/11 00:44:01;;;;;;;53.10;22.85;;;;;;;0.84;78.47;99928.59;4099258;28;20458;-60
2021/12/11 00:46:08;;;;;;;42.65;21.25;;;;;;;0.81;78.92;99931.03;4092258;29;20057;-60
2021/12/11 00:48:16;;;;;;;61.65;21.33;;;;;;;0.71;78.69;99936.53;4108587;28;20043;-60
2021/12/11 00:50:25;;;;;;;41.72;19.73;;;;;;;0.71;79.05;99938.25;4096177;28;20081;-57
2021/12/11 00:52:33;;;;;;;74.93;21.88;;;;;;;0.73;79.31;99940.06;4086156;28;20062;-58
2021/12/11 00:54:40;;;;;;;54.92;22.27;;;;;;;0.74;79.13;99944.34;4112029;28;20074;-59
2021/12/11 00:56:45;;;;;;;44.33;21.25;;;;;;;0.73;78.84;99944.28;4100122;28;20082;-60
2021/12/11 00:58:51;;;;;;;63.45;22.23;;;;;;;0.56;79.45;99946.97;4113870;28;20523;-60
2021/12/11 01:00:58;;;;;;;50.88;19.98;;;;;;;0.42;78.99;99942.88;4097690;28;20047;-63
2021/12/11 01:03:01;;;;;;;65.82;21.77;;;;;;;0.45;79.19;99955.81;4114450;28;20051;-60
2021/12/11 01:05:09;;;;;;;49.47;22.38;;;;;;;0.52;79.07;99961.28;4113108;28;20047;-58
2021/12/11 01:07:19;;;;;;;39.97;20.73;;;;;;;0.59;79.74;99967.56;4114383;28;20046;-57
2021/12/11 01:09:25;;;;;;;120.32;23.27;;;;;;;0.54;79.79;99971.59;4099003;28;20035;-57
2021/12/11 01:11:32;;;;;;;46.83;21.98;;;;;;;0.50;79.91;99972.25;4099232;29;20047;-59
2021/12/11 01:13:40;;;;;;;89.80;24.48;;;;;;;0.49;79.71;99980.72;4099279;28;20047;-60
2021/12/11 01:15:47;;;;;;;55.28;22.52;;;;;;;0.49;79.99;99981.59;4098651;28;20062;-59
2021/12/11 01:18:01;;;;;;;102.20;24.30;;;;;;;0.48;80.05;99991.75;4092664;29;20074;-59
2021/12/11 01:20:19;;;;;;;93.63;23.65;;;;;;;0.41;79.44;99988.03;4097377;28;20042;-58
2021/12/11 01:22:33;;;;;;;40.22;21.38;;;;;;;0.44;80.41;99992.41;4097698;28;20150;-58
2021/12/11 01:24:43;;;;;;;57.63;21.08;;;;;;;0.49;80.57;100001.19;4098660;28;20046;-58
2021/12/11 01:26:50;;;;;;;67.35;22.58;;;;;;;0.53;79.53;100003.09;4098212;28;20567;-58
2021/12/11 01:28:54;;;;;;;102.10;24.45;;;;;;;0.48;79.35;100010.56;4099867;28;20427;-58
2021/12/11 01:30:59;;;;;;;80.15;23.17;;;;;;;0.42;80.03;100009.38;4098596;28;20039;-57
2021/12/11 01:33:04;;;;;;;110.70;23.15;;;;;;;0.37;79.86;100018.50;4099646;28;20223;-59
2021/12/11 01:35:12;;;;;;;39.85;21.98;;;;;;;0.36;80.70;100016.75;4099984;28;20071;-60
2021/12/11 01:37:16;;;;;;;48.13;21.83;;;;;;;0.46;80.06;100026.63;4104499;28;20765;-59
2021/12/11 01:39:24;;;;;;;43.85;21.85;;;;;;;0.57;80.20;100025.44;4098117;28;20047;-55
2021/12/11 01:41:28;;;;;;;52.47;21.63;;;;;;;0.66;80.06;100027.56;4099858;28;20382;-58
2021/12/11 01:43:33;;;;;;;42.05;22.95;;;;;;;0.72;80.29;100044.88;4099221;28;20098;-58
2021/12/11 01:45:39;;;;;;;47.90;21.83;;;;;;;0.75;79.93;100034.78;4098662;28;20047;-58
2021/12/11 01:47:44;;;;;;;34.42;20.20;;;;;;;0.76;80.20;100041.63;4099132;28;20103;-54
2021/12/11 01:49:50;;;;;;;45.38;22.58;;;;;;;0.76;79.98;100041.63;4112588;28;20047;-58
2021/12/11 01:52:00;;;;;;;43.60;19.88;;;;;;;0.84;79.47;100045.44;4114066;28;20054;-61
2021/12/11 01:54:12;;;;;;;41.08;20.85;;;;;;;0.89;79.59;100045.66;4099434;28;20110;-56
2021/12/11 01:56:18;;;;;;;36.45;20.30;;;;;;;0.97;79.35;100045.19;4098872;28;20591;-59
2021/12/11 01:58:25;;;;;;;44.28;20.30;;;;;;;1.03;79.38;100048.03;4095410;29;20408;-58
2021/12/11 02:00:33;;;;;;;42.17;21.73;;;;;;;1.06;78.85;100047.31;4112240;28;20051;-58
2021/12/11 02:02:40;;;;;;;43.45;21.40;;;;;;;1.04;79.31;100060.03;4098736;28;20106;-59
2021/12/11 02:04:46;;;;;;;42.50;22.00;;;;;;;1.01;79.22;100064.16;4098116;29;20043;-60
2021/12/11 02:06:53;;;;;;;44.95;21.58;;;;;;;1.02;79.09;100064.22;4098957;28;20051;-61
2021/12/11 02:08:57;;;;;;;48.40;22.13;;;;;;;1.06;78.61;100066.91;4098887;28;20512;-60
2021/12/11 02:11:05;;;;;;;35.15;20.55;;;;;;;1.04;78.93;100067.72;4099095;28;20101;-57
2021/12/11 02:13:11;;;;;;;35.08;19.77;;;;;;;1.07;79.01;100077.22;4099682;28;20044;-59
2021/12/11 02:15:18;;;;;;;33.28;19.13;;;;;;;1.09;78.85;100074.75;4098862;28;20047;-59
2021/12/11 02:17:24;;;;;;;38.63;19.65;;;;;;;1.14;78.65;100076.72;4096406;28;20043;-59
2021/12/11 02:19:33;;;;;;;39.03;21.08;;;;;;;1.14;78.64;100070.69;4097030;28;20070;-59
2021/12/11 02:21:42;;;;;;;41.50;21.13;;;;;;;1.16;78.67;100074.22;4097885;28;20043;-60
2021/12/11 02:23:52;;;;;;;37.25;20.15;;;;;;;1.16;78.19;100075.06;4096826;28;20047;-60
2021/12/11 02:26:00;;;;;;;37.13;21.70;;;;;;;1.17;78.27;100076.84;4096531;28;20134;-59
2021/12/11 02:28:07;;;;;;;33.40;19.55;;;;;;;1.22;78.26;100084.72;4093753;28;20043;-56
2021/12/11 02:30:20;;;;;;;35.22;20.33;;;;;;;1.28;78.19;100082.44;4094003;28;20052;-58
2021/12/11 02:32:31;;;;;;;33.70;19.27;;;;;;;1.34;78.49;100090.41;4092152;28;20046;-60
2021/12/11 02:34:37;;;;;;;38.40;21.10;;;;;;;1.35;77.73;100081.91;4094033;28;20056;-57
2021/12/11 02:36:45;;;;;;;35.08;21.00;;;;;;;1.33;77.64;100086.09;4094488;28;20043;-59
2021/12/11 02:38:57;;;;;;;40.50;19.67;;;;;;;1.30;77.56;100091.09;4094920;29;20047;-61
2021/12/11 02:41:04;;;;;;;35.75;20.05;;;;;;;1.28;77.26;100095.25;4092658;28;20597;-58
2021/12/11 02:43:14;;;;;;;37.40;19.63;;;;;;;1.26;77.53;100096.88;4094018;28;20134;-61
2021/12/11 02:45:21;;;;;;;33.85;20.27;;;;;;;1.24;77.57;100097.59;4096728;28;20051;-57
2021/12/11 02:47:27;;;;;;;37.10;22.02;;;;;;;1.20;77.32;100096.59;4098716;28;20067;-59
2021/12/11 02:49:34;;;;;;;37.58;19.73;;;;;;;1.17;77.29;100102.44;4097585;28;20055;-61
2021/12/11 02:51:40;;;;;;;38.58;21.10;;;;;;;1.16;77.83;100108.38;4114232;28;20046;-59
2021/12/11 02:53:49;;;;;;;42.92;20.23;;;;;;;1.13;77.38;100117.59;4113278;28;20109;-61
2021/12/11 02:55:56;;;;;;;36.35;21.33;;;;;;;1.12;77.66;100118.41;4098382;28;20047;-61
2021/12/11 02:58:04;;;;;;;35.33;20.40;;;;;;;1.14;77.64;100119.31;4096661;28;20500;-59
2021/12/11 03:00:13;;;;;;;35.47;20.73;;;;;;;1.14;77.24;100127.00;4099347;28;20101;-57
2021/12/11 03:02:20;;;;;;;40.85;20.67;;;;;;;1.18;77.66;100127.25;4099075;28;20539;-59
2021/12/11 03:04:32;;;;;;;32.70;19.38;;;;;;;1.18;77.65;100137.50;4100469;28;20072;-59
2021/12/11 03:06:40;;;;;;;35.63;21.17;;;;;;;1.16;77.39;100133.97;4100983;28;20047;-58
2021/12/11 03:08:46;;;;;;;36.38;21.27;;;;;;;1.14;77.38;100143.28;4101605;28;20051;-57
2021/12/11 03:10:52;;;;;;;36.08;22.20;;;;;;;1.11;76.91;100139.66;4115036;28;20054;-58
2021/12/11 03:12:56;;;;;;;35.60;21.45;;;;;;;1.00;77.75;100139.19;4101725;28;20043;-57
2021/12/11 03:14:59;;;;;;;36.67;21.33;;;;;;;0.96;77.38;100148.38;4099238;29;20061;-59
2021/12/11 03:17:02;;;;;;;45.78;22.23;;;;;;;0.95;77.71;100151.75;4100723;28;20050;-59
2021/12/11 03:19:09;;;;;;;57.83;22.30;;;;;;;0.89;78.24;100158.25;4099985;28;20043;-58
2021/12/11 03:21:13;;;;;;;40.95;22.02;;;;;;;0.90;78.31;100157.47;4100753;28;20428;-59
2021/12/11 03:23:17;;;;;;;46.88;22.95;;;;;;;0.94;78.67;100157.69;4101618;28;20039;-57
2021/12/11 03:25:24;;;;;;;43.92;22.20;;;;;;;0.94;78.82;100161.94;4101809;28;20043;-59
2021/12/11 03:27:28;;;;;;;39.35;22.45;;;;;;;0.91;78.22;100170.31;4102284;28;20452;-58
2021/12/11 03:29:31;;;;;;;33.70;20.80;;;;;;;0.86;78.29;100176.88;4101170;28;20074;-56
2021/12/11 03:31:36;;;;;;;61.47;23.20;;;;;;;0.80;78.31;100187.69;4101895;28;20035;-57
2021/12/11 03:33:43;;;;;;;51.33;22.45;;;;;;;0.77;79.09;100186.69;4099946;28;20051;-59
2021/12/11 03:35:47;;;;;;;46.20;22.67;;;;;;;0.61;78.75;100180.81;4101810;28;20043;-53
2021/12/11 03:37:51;;;;;;;47.90;20.30;;;;;;;0.47;79.45;100187.81;4099931;28;20043;-57
2021/12/11 03:39:55;;;;;;;36.97;19.90;;;;;;;0.47;78.74;100190.34;4099650;28;20051;-59
2021/12/11 03:42:04;;;;;;;35.40;20.38;;;;;;;0.49;79.35;100193.00;4101416;28;20047;-59
2021/12/11 03:44:09;;;;;;;40.05;20.65;;;;;;;0.45;79.38;100198.75;4100251;29;20055;-61
2021/12/11 03:46:14;;;;;;;32.55;20.48;;;;;;;0.26;78.58;100200.34;4100598;28;20130;-61
2021/12/11 03:48:20;;;;;;;33.90;20.55;;;;;;;0.26;78.73;100202.91;4098403;28;20048;-55
2021/12/11 03:50:25;;;;;;;27.35;18.05;;;;;;;0.27;79.24;100209.78;4098070;28;20063;-60
2021/12/11 03:52:28;;;;;;;29.38;18.55;;;;;;;0.24;79.33;100214.75;4113474;28;20113;-58
2021/12/11 03:54:35;;;;;;;32.08;18.42;;;;;;;0.23;78.78;100218.09;4097954;29;20171;-57
2021/12/11 03:56:39;;;;;;;29.42;18.73;;;;;;;0.35;78.80;100217.84;4098592;28;20456;-56
2021/12/11 03:58:49;;;;;;;31.77;18.45;;;;;;;0.47;79.03;100222.75;4099508;28;20047;-58
2021/12/11 04:00:55;;;;;;;39.05;21.92;;;;;;;0.39;78.89;100231.69;4106572;28;20583;-57
2021/12/11 04:03:03;;;;;;;33.33;20.70;;;;;;;0.40;78.35;100231.75;4099015;28;20094;-61
2021/12/11 04:05:08;;;;;;;37.85;21.90;;;;;;;0.48;78.47;100234.69;4097623;29;20044;-61
2021/12/11 04:07:16;;;;;;;36.97;20.65;;;;;;;0.48;79.12;100239.81;4099832;28;20047;-60
2021/12/11 04:09:19;;;;;;;39.90;22.27;;;;;;;0.51;78.91;100237.41;4098315;28;20062;-60
2021/12/11 04:11:25;;;;;;;36.15;21.67;;;;;;;0.57;78.09;100242.88;4100660;28;20050;-59
2021/12/11 04:13:28;;;;;;;35.13;21.10;;;;;;;0.58;78.70;100243.72;4098309;28;20524;-61
2021/12/11 04:15:32;;;;;;;32.85;21.00;;;;;;;0.66;78.15;100256.13;4100368;28;20067;-61
2021/12/11 04:17:36;;;;;;;35.60;22.30;;;;;;;0.71;78.60;100263.16;4095929;28;20035;-59
2021/12/11 04:19:41;;;;;;;35.40;22.05;;;;;;;0.72;78.07;100252.13;4098356;28;20404;-60
2021/12/11 04:21:45;;;;;;;;;;;;;;;0.60;78.50;100258.38;4098270;28;20106;-59
2021/12/11 04:23:48;;;;;;;37.42;21.95;;;;;;;0.51;78.30;100255.31;4099742;28;19978;-56
2021/12/11 04:25:54;;;;;;;40.53;22.13;;;;;;;0.57;78.22;100270.09;4100291;28;20444;-61
2021/12/11 04:27:57;;;;;;;37.20;22.08;;;;;;;0.48;78.84;100271.41;4099877;28;20043;-57
2021/12/11 04:30:03;;;;;;;36.47;22.23;;;;;;;0.57;78.50;100275.22;4098496;28;20197;-56
2021/12/11 04:32:09;;;;;;;41.45;23.60;;;;;;;0.59;78.96;100279.63;4098160;28;20503;-61
2021/12/11 04:34:14;;;;;;;42.22;22.83;;;;;;;0.60;78.86;100280.50;4097707;28;20106;-56
2021/12/11 04:36:21;;;;;;;35.08;21.17;;;;;;;0.64;78.68;100285.88;4098819;28;20046;-60
2021/12/11 04:38:24;;;;;;;37.60;21.67;;;;;;;0.66;77.94;100286.81;4097166;28;20043;-57
2021/12/11 04:40:33;;;;;;;40.22;22.77;;;;;;;0.66;78.59;100278.28;4099642;28;20039;-57
2021/12/11 04:42:49;;;;;;;34.97;20.85;;;;;;;0.57;78.61;100286.34;4110421;28;20180;-58
2021/12/11 04:44:52;;;;;;;45.70;22.67;;;;;;;0.54;78.46;100290.41;4099461;29;20050;-57
2021/12/11 04:46:55;;;;;;;33.58;20.75;;;;;;;0.51;77.92;100296.25;4098657;28;20043;-57
2021/12/11 04:49:07;;;;;;;32.17;19.52;;;;;;;0.47;77.91;100296.91;4095752;28;20127;-58
2021/12/11 04:51:17;;;;;;;37.85;21.75;;;;;;;0.48;78.62;100302.09;4098807;28;20122;-57
2021/12/11 04:53:37;;;;;;;39.58;21.83;;;;;;;0.55;78.60;100300.72;4111582;28;20043;-61
2021/12/11 04:55:55;;;;;;;33.17;20.88;;;;;;;0.55;78.39;100300.72;4099984;28;20436;-60
2021/12/11 04:58:10;;;;;;;35.40;20.95;;;;;;;0.47;78.72;100308.00;4098304;28;20077;-58
2021/12/11 05:00:31;;;;;;;34.72;19.50;;;;;;;0.47;78.48;100308.00;4095768;28;20359;-57
2021/12/11 05:05:18;;;;;;;34.45;19.67;;;;;;;0.34;78.75;100324.38;4089682;28;20059;-57
2021/12/11 05:07:31;;;;;;;33.33;17.90;;;;;;;0.19;78.35;100331.25;4099871;28;20047;-57
2021/12/11 05:09:53;;;;;;;35.25;18.92;;;;;;;-0.02;78.30;100328.38;4098237;28;20087;-60
2021/12/11 05:12:09;;;;;;;35.20;18.55;;;;;;;-0.03;79.12;100339.41;4114397;28;20082;-60
2021/12/11 05:14:14;;;;;;;31.08;18.27;;;;;;;-0.07;79.26;100340.06;4100035;28;20047;-59
2021/12/11 05:16:17;;;;;;;39.97;17.85;;;;;;;-0.06;78.04;100342.69;4099068;28;20090;-56
2021/12/11 05:18:24;;;;;;;51.47;19.80;;;;;;;-0.15;78.83;100347.28;4098859;28;20047;-58
2021/12/11 05:20:32;;;;;;;26.23;16.98;;;;;;;-0.14;78.13;100366.94;4098551;28;20051;-61
2021/12/11 05:22:35;;;;;;;28.90;17.02;;;;;;;-0.13;78.75;100370.34;4099209;28;20043;-60
2021/12/11 05:24:40;;;;;;;32.05;16.92;;;;;;;-0.10;78.78;100362.84;4099596;29;20440;-60
2021/12/11 05:26:43;;;;;;;;;;;;;;;-0.21;79.22;100372.47;4100236;28;20040;-57
2021/12/11 05:28:46;;;;;;;31.02;17.98;;;;;;;-0.22;78.60;100373.28;4099322;28;19969;-60
2021/12/11 05:30:52;;;;;;;29.70;17.45;;;;;;;-0.20;78.04;100379.38;4098633;28;20497;-59
2021/12/11 05:32:58;;;;;;;30.73;19.05;;;;;;;-0.12;78.08;100373.00;4099356;28;20094;-58
2021/12/11 05:35:02;;;;;;;27.38;17.73;;;;;;;-0.06;78.03;100381.03;4099497;28;20047;-58
2021/12/11 05:37:06;;;;;;;31.55;19.73;;;;;;;-0.05;78.23;100381.88;4098818;28;20142;-58
2021/12/11 05:39:13;;;;;;;30.60;19.40;;;;;;;-0.06;77.45;100388.69;4113656;28;20460;-59
2021/12/11 05:41:19;;;;;;;36.90;19.63;;;;;;;-0.22;78.19;100391.16;4098488;28;20047;-60
2021/12/11 05:43:22;;;;;;;32.25;19.02;;;;;;;-0.39;78.69;100395.31;4095421;28;20050;-58
2021/12/11 05:45:26;;;;;;;37.22;19.42;;;;;;;-0.42;78.76;100403.69;4099245;28;20067;-59
2021/12/11 05:47:29;;;;;;;40.47;18.42;;;;;;;-0.49;79.27;100406.69;4096872;28;20685;-60
2021/12/11 05:49:34;;;;;;;34.85;18.65;;;;;;;-0.53;79.14;100409.84;4095661;28;20074;-58
2021/12/11 05:51:39;;;;;;;38.08;17.73;;;;;;;-0.56;78.59;100413.09;4097687;29;20101;-56
2021/12/11 05:53:43;;;;;;;25.30;16.00;;;;;;;-0.58;78.92;100426.59;4095519;28;20035;-58
2021/12/11 05:55:48;;;;;;;37.20;19.27;;;;;;;-0.55;79.08;100427.63;4096601;28;20081;-56
2021/12/11 05:57:55;;;;;;;38.63;19.40;;;;;;;-0.50;78.89;100427.03;4098060;28;20047;-62
2021/12/11 05:59:59;;;;;;;31.80;19.90;;;;;;;-0.42;79.53;100428.34;4093601;28;20456;-58
2021/12/11 06:02:07;;;;;;;36.45;19.70;;;;;;;-0.39;78.92;100444.72;4110158;28;20047;-62
2021/12/11 06:04:15;;;;;;;42.75;21.38;;;;;;;-0.37;78.22;100438.03;4098014;28;20035;-59
2021/12/11 06:06:18;;;;;;;43.28;18.98;;;;;;;-0.48;78.25;100449.31;4094092;28;20043;-60
2021/12/11 06:08:21;;;;;;;35.38;18.67;;;;;;;-0.54;79.05;100452.38;4103231;28;20097;-60
2021/12/11 06:10:27;;;;;;;28.85;16.08;;;;;;;-0.57;78.39;100457.31;4089056;28;20047;-58
2021/12/11 06:12:31;;;;;;;32.38;18.63;;;;;;;-0.54;78.76;100456.59;4100680;28;20069;-59
2021/12/11 06:14:36;;;;;;;41.13;21.45;;;;;;;-0.45;77.94;100464.81;4085567;28;20047;-59
2021/12/11 06:16:39;;;;;;;;;;;;;;;-0.46;78.20;100469.81;4089835;28;20070;-58
2021/12/11 06:18:44;;;;;;;38.90;19.52;;;;;;;-0.42;78.53;100474.31;4093608;28;20382;-59
2021/12/11 06:20:48;;;;;;;;;;;;;;;-0.54;79.11;100477.00;4098904;28;20043;-62
2021/12/11 06:22:52;;;;;;;37.10;19.00;;;;;;;-0.54;79.68;100482.13;4103468;28;19923;-59
2021/12/11 06:24:58;;;;;;;37.33;19.10;;;;;;;-0.49;78.49;100479.88;4101701;28;20035;-61
2021/12/11 06:27:03;;;;;;;40.38;18.95;;;;;;;-0.46;79.22;100483.47;4101748;28;20492;-59
2021/12/11 06:29:06;;;;;;;30.85;18.38;;;;;;;-0.45;78.20;100492.91;4114800;28;20439;-59
2021/12/11 06:31:17;;;;;;;26.05;16.50;;;;;;;-0.48;78.70;100492.72;4099906;28;20126;-58
2021/12/11 06:33:21;;;;;;;29.23;16.92;;;;;;;-0.56;77.74;100494.81;4100385;29;20043;-59
2021/12/11 06:35:30;;;;;;;27.38;17.10;;;;;;;-0.59;78.56;100503.97;4100491;28;20039;-58
2021/12/11 06:37:33;;;;;;;26.80;17.08;;;;;;;-0.66;78.04;100512.03;4102245;28;20456;-59
2021/12/11 06:39:38;;;;;;;26.75;17.17;;;;;;;-0.71;78.89;100512.66;4114630;28;20106;-59
2021/12/11 06:41:53;;;;;;;28.58;17.13;;;;;;;-0.69;79.00;100515.28;4102316;29;20432;-58
2021/12/11 06:43:57;;;;;;;31.23;18.45;;;;;;;-0.61;78.29;100524.28;4102925;28;20508;-60
2021/12/11 06:46:01;;;;;;;28.38;17.50;;;;;;;-0.59;78.31;100527.81;4097336;28;20035;-57
2021/12/11 06:48:05;;;;;;;32.17;18.05;;;;;;;-0.52;78.99;100534.19;4102435;28;20043;-58
2021/12/11 06:50:09;;;;;;;28.35;17.75;;;;;;;-0.52;79.22;100536.72;4153967;23;20709;-60
2021/12/11 06:52:16;;;;;;;31.65;18.65;;;;;;;-0.47;78.74;100534.44;4142621;28;20164;-59
2021/12/11 06:54:19;;;;;;;26.77;16.05;;;;;;;-0.50;78.19;100532.59;4147029;28;20485;-60
2021/12/11 06:56:23;;;;;;;24.83;15.35;;;;;;;-0.42;79.03;100543.28;4150585;28;20044;-61
2021/12/11 06:58:27;;;;;;;27.95;16.50;;;;;;;-0.37;78.98;100545.28;4143517;28;20049;-60
2021/12/11 07:00:31;;;;;;;27.08;16.20;;;;;;;-0.30;78.55;100548.22;4142958;28;20046;-58
2021/12/11 07:02:35;;;;;;;26.58;15.95;;;;;;;-0.27;78.67;100549.28;4148031;28;20048;-60
2021/12/11 07:04:39;;;;;;;27.73;16.65;;;;;;;-0.23;78.14;100558.03;4146265;28;20046;-59
2021/12/11 07:06:45;;;;;;;27.63;16.02;;;;;;;-0.18;78.16;100566.81;4144661;28;20494;-60
2021/12/11 07:08:50;;;;;;;25.85;16.27;;;;;;;-0.14;77.53;100571.34;4144749;28;20470;-60
2021/12/11 07:10:53;;;;;;;27.67;17.13;;;;;;;-0.18;77.44;100574.50;4146965;28;20033;-58
2021/12/11 07:12:56;;;;;;;26.08;15.18;;;;;;;-0.10;76.93;100570.72;4146159;28;20096;-58
2021/12/11 07:14:59;;;;;;;26.08;16.02;;;;;;;-0.10;77.43;100577.50;4144694;28;20044;-60
2021/12/11 07:17:04;;;;;;;29.30;16.85;;;;;;;-0.09;76.92;100582.72;4147751;28;20579;-60
2021/12/11 07:19:09;;;;;;;27.60;16.20;;;;;;;-0.11;77.19;100579.19;4144912;28;20076;-60
2021/12/11 07:21:12;;;;;;;32.65;18.70;;;;;;;-0.11;77.39;100583.41;4145901;28;20038;-60
2021/12/11 07:23:15;;;;;;;27.88;16.80;;;;;;;-0.10;77.12;100595.38;4146043;28;20096;-58
2021/12/11 07:25:31;;;;;;;26.73;15.98;;;;;;;-0.08;77.48;100599.78;4148444;28;20029;-57
2021/12/11 07:27:34;;;;;;;26.35;16.75;;;;;;;0.04;77.37;100593.66;4150176;28;20050;-58
2021/12/11 07:29:38;;;;;;;29.23;17.63;;;;;;;0.11;78.75;100596.66;4150869;28;20050;-56
2021/12/11 07:31:43;;;;;;;29.60;18.08;;;;;;;0.03;77.26;100597.00;4145925;28;20130;-55
2021/12/11 07:33:47;;;;;;;27.02;15.75;;;;;;;0.30;78.62;100607.94;4149185;28;20449;-56
2021/12/11 07:35:52;;;;;;;26.67;17.05;;;;;;;0.45;77.52;100619.06;4146424;28;20108;-58
2021/12/11 07:37:56;;;;;;;24.35;15.13;;;;;;;0.50;76.78;100612.53;4145606;28;20038;-56
2021/12/11 07:39:59;;;;;;;31.10;15.90;;;;;;;0.51;76.40;100615.97;4147960;28;20064;-54
2021/12/11 07:42:06;;;;;;;24.98;15.43;;;;;;;0.60;77.13;100613.94;4144341;28;20293;-59
2021/12/11 07:44:10;;;;;;;26.00;16.05;;;;;;;0.63;76.75;100624.34;4147417;28;20497;-57
2021/12/11 07:46:16;;;;;;;25.00;15.57;;;;;;;0.63;76.02;100631.16;4149332;28;20042;-60
2021/12/11 07:48:20;;;;;;;28.05;16.13;;;;;;;0.66;75.96;100629.63;4148322;28;20046;-59
2021/12/11 07:50:26;;;;;;;25.10;16.67;;;;;;;0.74;75.23;100644.53;4147542;28;20065;-58
2021/12/11 07:52:29;;;;;;;25.90;15.68;;;;;;;0.72;76.01;100647.00;4147437;28;20509;-58
2021/12/11 07:54:33;;;;;;;25.05;16.92;;;;;;;0.75;75.99;100654.00;4145930;28;20049;-59
2021/12/11 07:56:37;;;;;;;24.02;15.13;;;;;;;0.80;75.54;100648.31;4145900;28;20046;-59
2021/12/11 07:58:40;;;;;;;45.05;15.32;;;;;;;0.80;75.02;100657.66;4148430;28;20276;-59
2021/12/11 08:00:45;;;;;;;23.52;13.95;;;;;;;0.81;75.38;100659.44;4147288;28;20057;-58
2021/12/11 08:02:49;;;;;;;23.35;14.90;;;;;;;0.87;75.02;100659.78;4147018;28;20049;-58
2021/12/11 08:04:52;;;;;;;22.63;14.65;;;;;;;0.87;74.63;100665.78;4144596;28;20071;-58
2021/12/11 08:06:57;;;;;;;23.17;14.50;;;;;;;0.93;74.94;100667.81;4147420;28;20048;-58
2021/12/11 08:09:01;;;;;;;23.42;15.52;;;;;;;0.93;75.07;100670.38;4148077;28;20418;-60
2021/12/11 08:11:11;;;;;;;24.95;14.40;;;;;;;0.98;74.86;100678.28;4145889;28;20435;-57
2021/12/11 08:13:14;;;;;;;20.60;13.65;;;;;;;0.98;75.17;100679.19;4146530;28;20376;-56
2021/12/11 08:15:18;;;;;;;20.92;14.80;;;;;;;1.00;74.54;100675.03;4141571;28;20034;-57
2021/12/11 08:17:21;;;;;;;23.15;15.35;;;;;;;1.07;75.10;100680.50;4137109;28;20450;-57
2021/12/11 08:19:28;;;;;;;21.83;14.73;;;;;;;1.13;74.84;100688.53;4145355;28;20046;-58
2021/12/11 08:21:32;;;;;;;22.30;14.57;;;;;;;1.18;74.32;100692.22;4142238;28;20050;-57
2021/12/11 08:23:43;;;;;;;20.67;13.80;;;;;;;1.17;74.03;100691.34;4145310;28;20056;-57
2021/12/11 08:25:48;;;;;;;21.67;14.75;;;;;;;1.12;74.26;100687.63;4147284;28;20048;-56
2021/12/11 08:27:51;;;;;;;23.63;14.80;;;;;;;1.09;74.69;100695.16;4140485;28;20688;-56
2021/12/11 08:29:54;;;;;;;21.48;13.43;;;;;;;1.14;74.33;100695.41;4143879;28;20109;-59
2021/12/11 08:31:59;;;;;;;22.70;14.63;;;;;;;1.11;74.22;100703.81;4144051;28;20422;-57
2021/12/11 08:34:02;;;;;;;21.25;14.15;;;;;;;1.08;74.38;100695.97;4142837;28;20105;-58
2021/12/11 08:36:06;;;;;;;22.05;14.88;;;;;;;1.13;74.03;100693.66;4142717;28;20042;-59
2021/12/11 08:38:09;;;;;;;22.08;14.48;;;;;;;1.19;74.46;100709.34;4144164;28;20046;-58
2021/12/11 08:40:36;;;;;;;23.88;15.82;;;;;;;1.23;74.42;100698.50;4144519;28;20116;-59
2021/12/11 08:42:39;;;;;;;21.95;13.60;;;;;;;1.25;74.51;100698.56;4143582;28;20542;-57
2021/12/11 08:44:50;;;;;;;20.67;14.00;;;;;;;1.30;74.61;100703.16;4145858;28;20030;-57
2021/12/11 08:46:56;;;;;;;24.17;14.10;;;;;;;1.32;74.49;100696.44;4136396;28;20056;-57
2021/12/11 08:49:05;;;;;;;21.33;14.43;;;;;;;1.40;74.12;100699.41;4147607;28;20056;-59
2021/12/11 08:51:14;;;;;;;21.27;13.82;;;;;;;1.41;74.14;100698.63;4141014;28;20038;-58
2021/12/11 08:53:18;;;;;;;23.15;13.75;;;;;;;1.45;74.36;100705.69;4146409;28;20042;-56
2021/12/11 08:55:26;;;;;;;23.17;15.57;;;;;;;1.53;73.98;100712.13;4142720;28;20030;-59
2021/12/11 08:57:32;;;;;;;21.52;14.52;;;;;;;1.53;73.90;100711.22;4142728;28;20050;-59
2021/12/11 08:59:39;;;;;;;20.92;13.70;;;;;;;1.60;74.01;100717.56;4146595;28;20376;-59
2021/12/11 09:01:46;;;;;;;22.48;14.30;;;;;;;1.67;73.62;100742.72;4141765;28;20449;-58
2021/12/11 09:03:52;;;;;;;22.52;13.93;;;;;;;1.51;73.27;100752.13;4147124;28;20112;-57
2021/12/11 09:05:59;;;;;;;20.10;13.98;;;;;;;1.43;74.11;100732.91;4146876;28;20516;-58
2021/12/11 09:08:07;;;;;;;23.60;15.43;;;;;;;1.49;73.80;100761.41;4146727;28;20046;-60
2021/12/11 09:10:16;;;;;;;24.38;15.82;;;;;;;1.54;73.99;100753.97;4141585;28;20117;-58
2021/12/11 09:12:26;;;;;;;24.45;15.35;;;;;;;1.60;73.90;100756.88;4147664;28;20442;-59
2021/12/11 09:14:34;;;;;;;25.50;15.52;;;;;;;1.62;73.92;100777.47;4146508;28;20049;-58
2021/12/11 09:16:42;;;;;;;27.70;16.70;;;;;;;1.62;73.87;100762.09;4147221;28;20507;-57
2021/12/11 09:18:58;;;;;;;24.95;16.08;;;;;;;1.74;73.94;100776.47;4147505;28;20434;-58
2021/12/11 09:21:05;;;;;;;24.15;14.68;;;;;;;1.80;73.67;100778.47;4142928;28;20049;-58
2021/12/11 09:23:12;;;;;;;26.00;16.38;;;;;;;1.96;73.44;100764.81;4144148;28;20045;-60
2021/12/11 09:25:19;;;;;;;22.70;15.43;;;;;;;2.05;73.51;100769.56;4143560;28;20046;-60
2021/12/11 09:27:27;;;;;;;24.70;16.27;;;;;;;2.16;72.76;100771.00;4147077;28;20478;-59
2021/12/11 09:29:33;;;;;;;21.20;14.05;;;;;;;2.16;72.29;100777.81;4147121;28;20057;-59
2021/12/11 09:31:45;;;;;;;25.73;15.88;;;;;;;2.30;72.53;100769.16;4145716;28;20053;-56
2021/12/11 09:33:52;;;;;;;24.33;14.93;;;;;;;2.41;72.54;100778.31;4143267;28;20065;-58
2021/12/11 09:35:59;;;;;;;24.38;16.80;;;;;;;2.57;72.68;100784.22;4141723;28;20053;-60
2021/12/11 09:38:06;;;;;;;23.80;15.88;;;;;;;2.63;71.78;100787.13;4145805;28;20042;-60
2021/12/11 09:40:15;;;;;;;26.10;16.77;;;;;;;2.64;71.78;100786.31;4141084;28;20495;-60
2021/12/11 09:42:18;;;;;;;25.10;15.93;;;;;;;2.67;71.51;100783.88;4142439;28;20076;-58
2021/12/11 09:44:27;;;;;;;27.58;17.13;;;;;;;2.71;71.38;100790.06;4146603;28;20071;-60
2021/12/11 09:46:34;;;;;;;28.10;17.92;;;;;;;2.62;71.24;100796.50;4144721;28;20042;-58